createdAt,value
2019-03-31T00:01:30.812Z,165.97
2019-03-31T00:04:03.731Z,168.20
2019-03-31T00:06:33.732Z,165.43
2019-03-31T00:09:05.760Z,162.20
2019-03-31T00:11:35.603Z,147.40
2019-03-31T00:14:05.940Z,124.10
2019-03-31T00:16:36.078Z,120.00
2019-03-31T00:19:06.191Z,120.90
2019-03-31T00:21:38.995Z,82.73
2019-03-31T00:24:09.090Z,78.63
2019-03-31T00:26:42.074Z,65.20
2019-03-31T00:29:12.200Z,64.73
2019-03-31T00:31:41.905Z,68.53
2019-03-31T00:34:12.239Z,78.63
2019-03-31T00:36:42.358Z,77.27
2019-03-31T00:39:14.514Z,67.87
2019-03-31T00:41:47.727Z,64.43
2019-03-31T00:44:20.268Z,67.60
2019-03-31T00:46:51.669Z,64.27
2019-03-31T00:49:21.324Z,67.23
2019-03-31T00:51:51.475Z,60.10
2019-03-31T00:54:21.200Z,60.80
2019-03-31T00:56:54.360Z,60.70
2019-03-31T00:59:25.291Z,66.93
2019-03-31T01:01:58.629Z,63.87
2019-03-31T01:04:30.282Z,63.37
2019-03-31T01:07:04.394Z,76.13
2019-03-31T01:09:36.163Z,58.43
2019-03-31T01:12:06.015Z,55.93
2019-03-31T01:14:36.247Z,50.07
2019-03-31T01:17:10.869Z,52.43
2019-03-31T01:19:42.843Z,55.77
2019-03-31T01:22:12.535Z,54.07
2019-03-31T01:24:43.484Z,49.50
2019-03-31T01:27:14.248Z,54.23
2019-03-31T01:29:46.808Z,52.70
2019-03-31T01:32:16.554Z,50.13
2019-03-31T01:34:46.424Z,60.20
2019-03-31T01:37:16.369Z,54.50
2019-03-31T01:39:47.124Z,55.73
2019-03-31T01:42:16.986Z,66.90
2019-03-31T01:44:47.517Z,71.60
2019-03-31T01:47:17.403Z,74.70
2019-03-31T01:49:50.183Z,67.87
2019-03-31T01:52:20.142Z,70.43
2019-03-31T01:54:50.248Z,63.47
2019-03-31T01:57:20.166Z,60.30
2019-03-31T01:59:50.098Z,55.80
2019-03-31T02:02:27.048Z,54.57
2019-03-31T02:04:58.809Z,54.33
2019-03-31T02:07:28.639Z,53.03
2019-03-31T02:10:00.474Z,54.57
2019-03-31T02:12:30.315Z,54.90
2019-03-31T02:15:00.353Z,52.73
2019-03-31T02:17:30.235Z,51.67
2019-03-31T02:20:00.358Z,50.77
2019-03-31T02:22:30.201Z,52.37
2019-03-31T02:25:00.109Z,54.47
2019-03-31T02:27:30.035Z,52.90
2019-03-31T02:30:00.427Z,53.77
2019-03-31T02:32:30.875Z,52.97
2019-03-31T02:35:02.859Z,56.03
2019-03-31T02:37:33.174Z,61.03
2019-03-31T02:40:03.087Z,55.17
2019-03-31T02:42:33.889Z,57.37
2019-03-31T02:45:06.302Z,62.67
2019-03-31T02:47:36.287Z,60.23
2019-03-31T02:50:05.993Z,60.33
2019-03-31T02:52:35.793Z,60.30
2019-03-31T02:55:05.929Z,60.27
2019-03-31T02:57:38.589Z,62.60
2019-03-31T03:00:08.515Z,64.37
2019-03-31T03:02:42.148Z,62.43
2019-03-31T03:05:19.596Z,63.67
2019-03-31T03:07:42.854Z,60.93
2019-03-31T03:10:17.669Z,61.53
2019-03-31T03:12:49.157Z,62.73
2019-03-31T03:15:21.927Z,61.00
2019-03-31T03:17:51.679Z,60.53
2019-03-31T03:20:21.463Z,57.47
2019-03-31T03:22:51.324Z,57.53
2019-03-31T03:25:21.195Z,59.33
2019-03-31T03:27:57.977Z,63.37
2019-03-31T03:30:27.693Z,60.50
2019-03-31T03:33:14.985Z,56.70
2019-03-31T03:35:31.710Z,60.73
2019-03-31T03:38:01.619Z,55.83
2019-03-31T03:40:33.753Z,54.33
2019-03-31T03:43:03.700Z,58.23
2019-03-31T03:45:33.856Z,54.50
2019-03-31T03:48:03.737Z,56.97
2019-03-31T03:50:33.708Z,56.43
2019-03-31T03:53:04.022Z,54.63
2019-03-31T03:55:33.924Z,55.83
2019-03-31T03:58:03.843Z,53.33
2019-03-31T04:00:33.533Z,56.00
2019-03-31T04:03:03.435Z,56.20
2019-03-31T04:05:34.680Z,52.50
2019-03-31T04:08:04.939Z,54.10
2019-03-31T04:10:53.004Z,57.23
2019-03-31T04:13:22.771Z,53.73
2019-03-31T04:15:55.160Z,53.93
2019-03-31T04:18:24.868Z,52.77
2019-03-31T04:20:54.778Z,51.60
2019-03-31T04:23:24.904Z,52.33
2019-03-31T04:25:55.229Z,53.73
2019-03-31T04:28:25.113Z,53.87
2019-03-31T04:30:55.267Z,53.93
2019-03-31T04:33:25.181Z,59.13
2019-03-31T04:35:55.301Z,59.73
2019-03-31T04:38:25.195Z,55.73
2019-03-31T04:40:55.127Z,52.73
2019-03-31T04:43:25.243Z,53.70
2019-03-31T04:45:57.739Z,96.60
2019-03-31T04:48:27.956Z,84.77
2019-03-31T04:50:59.472Z,72.70
2019-03-31T04:53:29.586Z,69.20
2019-03-31T04:55:59.322Z,69.70
2019-03-31T04:58:29.022Z,69.23
2019-03-31T05:00:58.851Z,70.00
2019-03-31T05:03:31.434Z,67.73
2019-03-31T05:06:01.452Z,77.77
2019-03-31T05:08:31.163Z,72.13
2019-03-31T05:11:00.844Z,75.20
2019-03-31T05:13:30.157Z,61.07
2019-03-31T05:16:00.054Z,61.87
2019-03-31T05:18:29.764Z,72.87
2019-03-31T05:20:59.692Z,62.60
2019-03-31T05:23:30.022Z,56.73
2019-03-31T05:25:59.921Z,52.80
2019-03-31T05:28:30.266Z,50.70
2019-03-31T05:31:01.649Z,53.30
2019-03-31T05:33:34.466Z,66.33
2019-03-31T05:36:04.518Z,62.50
2019-03-31T05:38:34.419Z,68.97
2019-03-31T05:41:07.483Z,70.77
2019-03-31T05:43:40.337Z,64.87
2019-03-31T05:46:10.322Z,61.20
2019-03-31T05:48:42.752Z,58.87
2019-03-31T05:51:13.031Z,58.50
2019-03-31T05:53:42.940Z,55.40
2019-03-31T05:56:12.673Z,56.73
2019-03-31T05:58:42.548Z,70.07
2019-03-31T06:01:12.464Z,59.33
2019-03-31T06:03:42.385Z,54.03
2019-03-31T06:06:12.724Z,52.77
2019-03-31T06:08:44.050Z,51.00
2019-03-31T06:11:13.986Z,50.83
2019-03-31T06:13:43.879Z,47.97
2019-03-31T06:16:13.662Z,45.10
2019-03-31T06:18:43.533Z,44.70
2019-03-31T06:21:13.649Z,40.77
2019-03-31T06:23:43.770Z,41.17
2019-03-31T06:26:13.651Z,42.90
2019-03-31T06:28:43.607Z,42.10
2019-03-31T06:31:13.917Z,42.10
2019-03-31T06:33:44.245Z,42.50
2019-03-31T06:36:14.139Z,50.40
2019-03-31T06:38:44.301Z,45.23
2019-03-31T06:41:15.234Z,44.03
2019-03-31T06:43:45.347Z,43.53
2019-03-31T06:46:15.478Z,43.53
2019-03-31T06:48:45.783Z,44.37
2019-03-31T06:51:17.249Z,46.30
2019-03-31T06:53:51.986Z,44.40
2019-03-31T06:56:23.760Z,40.77
2019-03-31T06:58:53.863Z,45.80
2019-03-31T07:01:23.967Z,44.37
2019-03-31T07:03:54.112Z,44.30
2019-03-31T07:06:24.438Z,44.37
2019-03-31T07:08:54.539Z,38.67
2019-03-31T07:11:24.869Z,38.37
2019-03-31T07:13:55.410Z,40.87
2019-03-31T07:16:25.509Z,41.53
2019-03-31T07:18:55.604Z,42.80
2019-03-31T07:21:25.054Z,40.33
2019-03-31T07:23:55.278Z,42.30
2019-03-31T07:26:25.181Z,39.93
2019-03-31T07:28:55.056Z,42.37
2019-03-31T07:31:26.648Z,42.00
2019-03-31T07:33:56.519Z,40.93
2019-03-31T07:36:28.432Z,40.63
2019-03-31T07:38:58.437Z,42.77
2019-03-31T07:41:29.211Z,43.03
2019-03-31T07:43:59.484Z,41.77
2019-03-31T07:46:29.376Z,36.10
2019-03-31T07:48:59.546Z,39.03
2019-03-31T07:51:30.044Z,37.53
2019-03-31T07:54:01.983Z,39.23
2019-03-31T07:56:32.237Z,38.60
2019-03-31T07:59:02.460Z,38.27
2019-03-31T08:01:32.208Z,34.60
2019-03-31T08:04:02.055Z,37.90
2019-03-31T08:06:31.971Z,38.23
2019-03-31T08:09:05.415Z,37.03
2019-03-31T08:11:35.300Z,35.13
2019-03-31T08:14:05.012Z,35.37
2019-03-31T08:16:35.119Z,33.70
2019-03-31T08:19:05.675Z,31.70
2019-03-31T08:21:35.566Z,31.67
2019-03-31T08:24:06.766Z,33.30
2019-03-31T08:26:36.820Z,33.87
2019-03-31T08:29:06.766Z,31.60
2019-03-31T08:31:38.762Z,29.67
2019-03-31T08:34:15.359Z,30.40
2019-03-31T08:36:45.164Z,29.70
2019-03-31T08:39:17.078Z,29.20
2019-03-31T08:41:47.195Z,29.30
2019-03-31T08:44:17.098Z,28.40
2019-03-31T08:46:46.796Z,28.37
2019-03-31T08:49:16.617Z,28.70
2019-03-31T08:51:46.621Z,28.87
2019-03-31T08:54:16.635Z,27.83
2019-03-31T08:56:46.470Z,27.93
2019-03-31T08:59:16.605Z,27.67
2019-03-31T09:01:46.301Z,27.87
2019-03-31T09:04:15.995Z,28.70
2019-03-31T09:06:46.550Z,28.33
2019-03-31T09:09:16.269Z,28.40
2019-03-31T09:11:46.367Z,29.07
2019-03-31T09:14:16.266Z,28.60
2019-03-31T09:16:46.191Z,28.43
2019-03-31T09:19:15.911Z,27.90
2019-03-31T09:21:45.838Z,30.10
2019-03-31T09:24:15.730Z,29.13
2019-03-31T09:26:46.697Z,29.80
2019-03-31T09:29:16.613Z,30.87
2019-03-31T09:31:46.300Z,29.03
2019-03-31T09:34:16.049Z,29.27
2019-03-31T09:36:45.790Z,27.77
2019-03-31T09:39:15.687Z,28.60
2019-03-31T09:41:45.550Z,28.17
2019-03-31T09:44:16.715Z,25.47
2019-03-31T09:46:46.271Z,23.63
2019-03-31T09:49:16.554Z,25.63
2019-03-31T09:51:46.272Z,24.17
2019-03-31T09:54:15.953Z,24.67
2019-03-31T09:56:45.938Z,24.73
2019-03-31T09:59:15.980Z,24.80
2019-03-31T10:01:45.743Z,24.33
2019-03-31T10:04:15.812Z,27.30
2019-03-31T10:06:46.139Z,25.97
2019-03-31T10:09:16.056Z,25.20
2019-03-31T10:11:48.031Z,25.57
2019-03-31T10:14:17.927Z,26.40
2019-03-31T10:16:47.637Z,26.30
2019-03-31T10:19:17.212Z,25.17
2019-03-31T10:21:49.516Z,26.13
2019-03-31T10:24:22.140Z,27.17
2019-03-31T10:26:52.184Z,27.27
2019-03-31T10:29:21.933Z,27.70
2019-03-31T10:31:51.871Z,27.63
2019-03-31T10:34:23.438Z,27.10
2019-03-31T10:36:53.162Z,27.40
2019-03-31T10:39:26.969Z,29.50
2019-03-31T10:42:00.042Z,27.40
2019-03-31T10:44:30.730Z,26.77
2019-03-31T10:47:00.169Z,28.90
2019-03-31T10:49:29.868Z,27.07
2019-03-31T10:52:02.668Z,29.73
2019-03-31T10:54:32.776Z,29.47
2019-03-31T10:57:02.679Z,30.60
2019-03-31T10:59:32.434Z,28.93
2019-03-31T11:02:02.291Z,29.50
2019-03-31T11:04:32.202Z,29.67
2019-03-31T11:07:03.630Z,29.20
2019-03-31T11:09:34.473Z,29.23
2019-03-31T11:12:04.421Z,26.37
2019-03-31T11:14:34.321Z,26.87
2019-03-31T11:17:04.059Z,27.43
2019-03-31T11:19:34.018Z,28.33
2019-03-31T11:22:15.785Z,29.63
2019-03-31T11:24:45.887Z,29.70
2019-03-31T11:27:15.783Z,29.77
2019-03-31T11:29:45.524Z,28.77
2019-03-31T11:32:15.219Z,30.50
2019-03-31T11:34:44.944Z,28.53
2019-03-31T11:37:15.049Z,27.40
2019-03-31T11:39:44.939Z,27.67
2019-03-31T11:42:14.868Z,27.33
2019-03-31T11:44:48.135Z,27.10
2019-03-31T11:47:17.989Z,26.90
2019-03-31T11:49:49.100Z,25.47
2019-03-31T11:52:18.868Z,25.77
2019-03-31T11:54:49.806Z,25.53
2019-03-31T11:57:19.693Z,23.13
2019-03-31T11:59:49.902Z,24.10
2019-03-31T12:02:27.219Z,24.37
2019-03-31T12:04:52.491Z,25.60
2019-03-31T12:07:28.099Z,24.33
2019-03-31T12:09:56.439Z,21.87
2019-03-31T12:12:26.134Z,22.77
2019-03-31T12:15:00.721Z,22.77
2019-03-31T12:17:36.797Z,21.97
2019-03-31T12:20:07.946Z,21.00
2019-03-31T12:22:38.022Z,20.70
2019-03-31T12:25:08.399Z,22.43
2019-03-31T12:27:38.135Z,22.70
2019-03-31T12:30:11.372Z,22.07
2019-03-31T12:32:41.662Z,21.60
2019-03-31T12:35:11.772Z,22.90
2019-03-31T12:37:43.177Z,22.87
2019-03-31T12:40:16.162Z,24.57
2019-03-31T12:42:46.197Z,21.33
2019-03-31T12:45:16.135Z,22.50
2019-03-31T12:47:47.478Z,20.60
2019-03-31T12:50:17.404Z,18.80
2019-03-31T12:52:50.920Z,21.00
2019-03-31T12:55:18.664Z,19.93
2019-03-31T12:57:51.703Z,22.33
2019-03-31T13:00:19.739Z,22.43
2019-03-31T13:02:49.637Z,21.97
2019-03-31T13:05:19.532Z,22.53
2019-03-31T13:07:56.165Z,22.30
2019-03-31T13:10:21.050Z,23.53
2019-03-31T13:12:56.758Z,24.67
2019-03-31T13:15:27.005Z,23.20
2019-03-31T13:17:59.969Z,21.37
2019-03-31T13:20:29.922Z,21.00
2019-03-31T13:23:00.857Z,20.90
2019-03-31T13:25:30.751Z,20.87
2019-03-31T13:28:00.651Z,20.07
2019-03-31T13:30:30.591Z,21.87
2019-03-31T13:33:03.862Z,20.60
2019-03-31T13:35:33.685Z,20.67
2019-03-31T13:38:10.799Z,20.47
2019-03-31T13:40:35.172Z,20.43
2019-03-31T13:43:05.081Z,20.47
2019-03-31T13:45:35.410Z,20.53
2019-03-31T13:48:05.296Z,21.97
2019-03-31T13:50:36.250Z,22.47
2019-03-31T13:53:06.051Z,21.53
2019-03-31T13:55:37.591Z,21.67
2019-03-31T13:58:08.621Z,21.40
2019-03-31T14:00:42.201Z,21.03
2019-03-31T14:03:12.386Z,23.47
2019-03-31T14:05:42.288Z,20.00
2019-03-31T14:08:24.947Z,18.27
2019-03-31T14:10:46.643Z,18.00
2019-03-31T14:13:16.418Z,18.83
2019-03-31T14:15:46.474Z,18.23
2019-03-31T14:18:16.200Z,18.47
2019-03-31T14:20:46.312Z,18.23
2019-03-31T14:23:18.892Z,18.57
2019-03-31T14:25:48.800Z,17.53
2019-03-31T14:28:19.116Z,16.87
2019-03-31T14:30:50.053Z,17.70
2019-03-31T14:33:19.973Z,17.77
2019-03-31T14:35:49.749Z,17.00
2019-03-31T14:38:19.401Z,16.53
2019-03-31T14:40:49.305Z,24.47
2019-03-31T14:43:19.224Z,37.60
2019-03-31T14:45:49.144Z,27.93
2019-03-31T14:48:18.863Z,20.17
2019-03-31T14:50:48.948Z,40.93
2019-03-31T14:53:20.118Z,117.53
2019-03-31T14:55:49.837Z,21.87
2019-03-31T14:58:19.727Z,63.87
2019-03-31T15:00:49.863Z,66.53
2019-03-31T15:03:20.598Z,21.47
2019-03-31T15:05:50.712Z,16.13
2019-03-31T15:08:20.472Z,16.03
2019-03-31T15:10:50.332Z,15.70
2019-03-31T15:13:20.260Z,14.37
2019-03-31T15:15:50.224Z,17.33
2019-03-31T15:18:20.065Z,14.47
2019-03-31T15:20:50.182Z,14.93
2019-03-31T15:23:28.848Z,13.97
2019-03-31T15:25:54.522Z,13.97
2019-03-31T15:28:24.872Z,13.60
2019-03-31T15:30:55.794Z,16.50
2019-03-31T15:33:25.684Z,13.17
2019-03-31T15:35:54.946Z,15.53
2019-03-31T15:38:28.505Z,14.37
2019-03-31T15:40:58.540Z,13.13
2019-03-31T15:43:29.268Z,23.80
2019-03-31T15:45:58.556Z,38.93
2019-03-31T15:48:28.259Z,43.20
2019-03-31T15:50:58.370Z,90.93
2019-03-31T15:53:28.320Z,66.93
2019-03-31T15:55:59.438Z,78.10
2019-03-31T15:58:29.365Z,21.17
2019-03-31T16:01:00.373Z,78.67
2019-03-31T16:03:30.206Z,41.13
2019-03-31T16:06:00.358Z,144.40
2019-03-31T16:08:34.989Z,21.70
2019-03-31T16:11:05.307Z,25.00
2019-03-31T16:13:35.015Z,66.40
2019-03-31T16:16:04.725Z,51.77
2019-03-31T16:18:34.210Z,13.83
2019-03-31T16:21:09.274Z,12.00
2019-03-31T16:23:41.428Z,12.47
2019-03-31T16:26:13.589Z,13.23
2019-03-31T16:28:45.741Z,12.20
2019-03-31T16:31:17.638Z,28.50
2019-03-31T16:33:48.055Z,20.53
2019-03-31T16:36:17.747Z,12.60
2019-03-31T16:38:50.600Z,12.40
2019-03-31T16:41:20.260Z,12.47
2019-03-31T16:43:52.430Z,14.73
2019-03-31T16:46:21.990Z,13.47
2019-03-31T16:48:51.611Z,18.87
2019-03-31T16:51:22.572Z,11.73
2019-03-31T16:53:51.925Z,15.53
2019-03-31T16:56:21.252Z,23.53
2019-03-31T16:58:51.142Z,17.33
2019-03-31T17:01:20.791Z,18.47
2019-03-31T17:03:50.307Z,25.50
2019-03-31T17:06:20.196Z,21.43
2019-03-31T17:08:49.809Z,14.53
2019-03-31T17:11:19.247Z,14.03
2019-03-31T17:13:49.371Z,21.47
2019-03-31T17:16:18.897Z,19.23
2019-03-31T17:18:48.548Z,23.43
2019-03-31T17:21:17.890Z,24.33
2019-03-31T17:23:47.408Z,23.97
2019-03-31T17:26:18.166Z,45.50
2019-03-31T17:28:49.035Z,46.77
2019-03-31T17:34:32.295Z,27.27
2019-03-31T17:37:02.018Z,19.03
2019-03-31T17:39:33.041Z,21.50
2019-03-31T17:42:02.637Z,22.97
2019-03-31T17:44:32.582Z,20.40
2019-03-31T17:47:02.771Z,24.93
2019-03-31T17:49:32.252Z,21.50
2019-03-31T17:52:02.716Z,25.63
2019-03-31T17:54:34.900Z,29.33
2019-03-31T17:57:04.376Z,31.93
2019-03-31T17:59:34.327Z,22.63
2019-03-31T18:02:05.540Z,34.70
2019-03-31T18:04:38.239Z,37.93
2019-03-31T18:07:08.990Z,27.07
2019-03-31T18:09:39.797Z,33.47
2019-03-31T18:12:19.473Z,27.03
2019-03-31T18:14:52.678Z,32.57
2019-03-31T18:17:22.174Z,30.37
2019-03-31T18:19:51.683Z,24.53
2019-03-31T18:22:21.584Z,24.23
2019-03-31T18:24:57.234Z,26.60
2019-03-31T18:27:28.270Z,35.57
2019-03-31T18:29:58.498Z,48.13
2019-03-31T18:32:28.204Z,68.33
2019-03-31T18:35:03.218Z,45.33
2019-03-31T18:37:33.137Z,33.63
2019-03-31T18:40:02.832Z,30.70
2019-03-31T18:42:32.994Z,32.63
2019-03-31T18:45:05.353Z,46.10
2019-03-31T18:47:34.929Z,64.53
2019-03-31T18:50:04.816Z,36.03
2019-03-31T18:52:40.439Z,27.60
2019-03-31T18:55:32.264Z,61.93
2019-03-31T18:58:30.273Z,61.60
2019-03-31T19:01:20.033Z,43.23
2019-03-31T19:04:13.287Z,46.17
2019-03-31T19:07:01.632Z,57.80
2019-03-31T19:09:59.415Z,31.97
2019-03-31T19:12:48.570Z,20.60
2019-03-31T19:15:54.359Z,19.13
2019-03-31T19:18:38.127Z,20.57
2019-03-31T19:21:16.880Z,20.33
2019-03-31T19:24:18.163Z,18.47
2019-03-31T19:27:18.217Z,19.17
2019-03-31T19:30:15.565Z,24.40
2019-03-31T19:32:58.943Z,80.30
2019-03-31T19:35:50.169Z,38.73
2019-03-31T19:38:41.307Z,24.67
2019-03-31T19:41:23.314Z,20.47
2019-03-31T19:44:13.972Z,22.07
2019-03-31T19:47:09.297Z,19.87
2019-03-31T19:50:10.125Z,25.30
2019-03-31T19:52:49.880Z,29.37
2019-03-31T19:55:36.177Z,30.67
2019-03-31T19:58:28.842Z,26.53
2019-03-31T20:01:23.511Z,24.57
2019-03-31T20:04:03.870Z,23.93
2019-03-31T20:06:51.211Z,20.17
2019-03-31T20:09:39.791Z,19.50
2019-03-31T20:12:30.351Z,25.87
2019-03-31T20:15:27.391Z,23.93
2019-03-31T20:18:26.603Z,20.33
2019-03-31T20:21:08.186Z,20.23
2019-03-31T20:23:59.945Z,40.57
2019-03-31T20:26:53.097Z,55.60
2019-03-31T20:29:37.015Z,44.10
2019-03-31T20:32:36.613Z,24.03
2019-03-31T20:35:31.812Z,22.13
2019-03-31T20:38:16.672Z,15.57
2019-03-31T20:41:06.124Z,22.10
2019-03-31T20:43:52.490Z,31.63
2019-03-31T20:46:22.779Z,30.63
2019-03-31T20:48:52.600Z,17.20
2019-03-31T20:51:27.133Z,15.00
2019-03-31T20:53:59.696Z,14.33
2019-03-31T20:56:29.366Z,11.23
2019-03-31T20:58:59.133Z,11.07
2019-03-31T21:01:29.045Z,10.70
2019-03-31T21:04:01.814Z,10.97
2019-03-31T21:06:32.774Z,11.30
2019-03-31T21:09:06.115Z,8.83
2019-03-31T21:11:35.692Z,8.70
2019-03-31T21:14:05.168Z,9.30
2019-03-31T21:16:34.851Z,8.10
2019-03-31T21:19:05.588Z,7.20
2019-03-31T21:21:36.359Z,7.13
2019-03-31T21:24:07.121Z,7.77
2019-03-31T21:26:36.760Z,7.20
2019-03-31T21:29:09.017Z,7.43
2019-03-31T21:31:41.971Z,7.27
2019-03-31T21:34:13.890Z,6.83
2019-03-31T21:36:44.232Z,7.10
2019-03-31T21:39:18.118Z,8.50
2019-03-31T21:41:51.579Z,8.33
2019-03-31T21:44:23.446Z,7.67
2019-03-31T21:46:56.806Z,9.00
2019-03-31T21:49:26.556Z,10.53
2019-03-31T21:51:58.085Z,10.93
2019-03-31T21:54:29.189Z,11.23
2019-03-31T21:56:59.131Z,12.53
2019-03-31T21:59:33.475Z,12.17
2019-03-31T22:02:02.840Z,13.97
2019-03-31T22:04:32.537Z,18.53
2019-03-31T22:07:02.474Z,17.50
2019-03-31T22:09:35.107Z,16.83
2019-03-31T22:12:04.789Z,17.97
2019-03-31T22:14:34.491Z,21.93
2019-03-31T22:17:04.015Z,24.03
2019-03-31T22:19:37.816Z,18.47
2019-03-31T22:22:08.333Z,12.80
2019-03-31T22:24:38.015Z,10.57
2019-03-31T22:27:07.743Z,8.40
2019-03-31T22:29:37.442Z,7.03
2019-03-31T22:32:08.019Z,11.77
2019-03-31T22:34:38.917Z,7.47
2019-03-31T22:37:08.491Z,6.83
2019-03-31T22:39:38.114Z,7.20
2019-03-31T22:42:10.104Z,7.67
2019-03-31T22:44:39.818Z,5.83
2019-03-31T22:47:09.731Z,6.47
2019-03-31T22:49:39.431Z,6.77
2019-03-31T22:52:12.198Z,6.17
2019-03-31T22:54:41.906Z,7.00
2019-03-31T22:57:11.609Z,5.37
2019-03-31T22:59:41.171Z,6.77
2019-03-31T23:02:10.829Z,9.90
2019-03-31T23:04:40.343Z,9.77
2019-03-31T23:07:11.277Z,12.27
2019-03-31T23:09:40.819Z,11.67
2019-03-31T23:12:11.377Z,9.27
2019-03-31T23:14:40.866Z,18.40
2019-03-31T23:17:10.751Z,27.03
2019-03-31T23:19:40.243Z,18.47
2019-03-31T23:22:11.115Z,18.37
2019-03-31T23:24:40.869Z,26.63
2019-03-31T23:27:17.541Z,23.53
2019-03-31T23:29:47.127Z,23.23
2019-03-31T23:32:16.772Z,17.00
2019-03-31T23:34:55.946Z,12.27
2019-03-31T23:37:25.424Z,13.73
2019-03-31T23:39:57.346Z,24.77
2019-03-31T23:42:27.318Z,13.77
2019-03-31T23:44:58.235Z,9.27
2019-03-31T23:47:27.957Z,17.90
2019-03-31T23:49:57.878Z,16.53
2019-03-31T23:52:27.355Z,22.20
2019-03-31T23:55:00.053Z,12.47
2019-03-31T23:57:40.186Z,14.97
